Tram, KY (41663)

7:26 AM EST on February 10, 2016 (GMT -0500)
Ratliff Creek | | Change Station
CLOSE
Current Station
Personal Weather Station
Location: Pikeville, KY
Elevation: 699 ft
Nearby Weather Stations
Active Advisory: Winter Weather Advisory

Elev 699 ft 37.50 °N, 82.53 °W | Updated 30 seconds ago

Overcast
Overcast
20.3 °F
Feels Like 20 °F
N
0.0
Wind Variable Wind from North
Gusts 2.2 mph

Today
High -- | Low -- °F
--% Chance of Precip.
Yesterday
High -- | Low -- °F
Precip. -- in
Pressure 29.96 in
Visibility 10.0 miles
Clouds Scattered Clouds 2100 ft
Scattered Clouds 2600 ft
Overcast 4900 ft
Windchill 20 °F
Dew Point 12 °F
Humidity 68%
Rainfall 0.00 in
Snow Depth Not available.
7:26 AM 6:04 PM
Waxing Crescent, 5% visible
METAR KSJS 101215Z AUTO 26007KT 10SM SCT021 SCT026 OVC049 M08/M11 A2996 RMK AO2 T10801112
Pressure 29.96 in
Visibility 10.0 miles
Clouds Scattered Clouds 2100 ft
Scattered Clouds 2600 ft
Overcast 4900 ft
Windchill 20 °F
Dew Point 12 °F
Humidity 68%
Rainfall 0.00 in
Snow Depth Not available.
7:26 AM 6:04 PM
Waxing Crescent, 5% visible
METAR KSJS 101215Z AUTO 26007KT 10SM SCT021 SCT026 OVC049 M08/M11 A2996 RMK AO2 T10801112

10-Day Weather Forecast

Almanac

Astronomy

Feb. 10, 2016 Rise Set
Actual Time
Civil Twilight
Nautical Twilight
Astronomical Twilight
Moon
Length of Visible Light
Length of Day
Tomorrow will be .
, % of the Moon is Illuminated

Today's Extremes

State Highs State Lows

Community

WunderPhotos

Upload Photos

1,891,835 photos uploaded!

WunderBlog® & News

Nearby

Air Quality

  Air Quality AQ Index Pollutant
Not available.

Snow Depth

Station Depth Elevation

Earthquake Activity

City Distance Mag. Time & Date
Minimum magnitude displayed is 2.5.

Coastal Water Temperatures

Place Temperature

Stations

Nearby Weather Stations

Station Location Temp. Windchill Dew Point Humidity Wind Precip. Elev Updated Type
                   

Watches & Warnings

Winter Weather Advisory
Issued: 5:11 AM EST Feb. 10, 2016 – National Weather Service

... Winter Weather Advisory remains in effect until 10 am EST this
morning...

* scattered snow showers will gradually diminish this morning.
Most of the snow showers will be light... however there will be a
few embedded moderate to heavy snow showers at times through 10
am.

* Most locations will see between a dusting and a quarter of an
inch of snowfall... however a few spots that see passing heavier
snow showers may receive up to a half inch of snowfall.

* Roads could become snow covered quickly within any heavier snow
showers. Additionally... visibilities will be greatly reduced
within the more intense snow showers.

Precautionary/preparedness actions...

A Winter Weather Advisory for snow means that periods of snow
will cause primarily travel difficulties. Be prepared for snow
covered roads and limited visibilities... and use caution while
driving.



Geogerian